Time;durP1;ratioP1;P1;durP2;ratioP2;P2;SDS_P1;SDS_P2;PMS_P1;PMS_P2;Temp;Humidity;BMP_temperature;BMP_pressure;BME280_temperature;BME280_humidity;BME280_pressure;Samples;Min_cycle;Max_cycle;Signal;HPM_P1;HPM_P2
2022/01/29 00:00:51;;;;;;;2.47;1.15;;;;;;;0.30;74.92;100790.16;4480543;31;33627;-75
2022/01/29 00:03:37;;;;;;;1.10;0.50;;;;;;;0.30;74.06;100792.84;4489939;31;34659;-74
2022/01/29 00:06:24;;;;;;;1.02;0.40;;;;;;;0.48;73.20;100808.28;4491216;31;35017;-77
2022/01/29 00:09:14;;;;;;;3.45;0.62;;;;;;;0.57;73.23;100809.69;4478883;31;36974;-76
2022/01/29 00:12:00;;;;;;;1.40;0.50;;;;;;;0.30;73.78;100804.44;4474867;31;34981;-74
2022/01/29 00:14:46;;;;;;;3.08;0.77;;;;;;;0.42;72.03;100805.41;4491617;31;34607;-76
2022/01/29 00:17:33;;;;;;;3.20;0.80;;;;;;;0.33;71.40;100811.28;4475585;31;35160;-73
2022/01/29 00:20:19;;;;;;;4.40;1.30;;;;;;;0.25;72.52;100815.03;4458520;31;34867;-76
2022/01/29 00:23:06;;;;;;;3.60;1.42;;;;;;;0.38;72.28;100806.91;4491178;31;34346;-75
2022/01/29 00:25:52;;;;;;;2.65;0.90;;;;;;;0.30;72.38;100807.13;4473330;32;34587;-75
2022/01/29 00:28:38;;;;;;;3.28;0.57;;;;;;;0.22;73.74;100837.03;4489231;31;36006;-75
2022/01/29 00:31:25;;;;;;;2.87;0.70;;;;;;;0.30;73.60;100822.50;4486124;31;34638;-75
2022/01/29 00:34:11;;;;;;;2.28;0.90;;;;;;;0.07;75.32;100813.03;4491161;31;34306;-75
2022/01/29 00:36:57;;;;;;;3.20;1.02;;;;;;;0.04;75.73;100821.56;4468168;31;34612;-75
2022/01/29 00:39:44;;;;;;;3.75;0.70;;;;;;;-0.01;76.47;100821.34;4490064;31;35019;-74
2022/01/29 00:42:30;;;;;;;2.03;0.55;;;;;;;-0.07;77.12;100831.13;4478056;31;34588;-75
2022/01/29 00:45:16;;;;;;;3.40;0.70;;;;;;;-0.09;78.09;100830.50;4489088;31;34199;-73
2022/01/29 00:48:03;;;;;;;4.22;0.90;;;;;;;-0.03;78.13;100828.81;4466488;31;34975;-76
2022/01/29 00:50:50;;;;;;;2.60;0.55;;;;;;;-0.16;79.45;100828.88;4489754;31;36419;-75
2022/01/29 00:53:36;;;;;;;2.08;0.50;;;;;;;-0.16;80.86;100828.88;4487766;31;34742;-74
2022/01/29 00:56:23;;;;;;;4.95;0.77;;;;;;;-0.06;80.95;100838.19;4475934;31;34175;-75
2022/01/29 00:59:09;;;;;;;2.83;0.88;;;;;;;-0.23;82.62;100815.41;4486566;31;34693;-74
2022/01/29 01:01:55;;;;;;;2.67;0.85;;;;;;;-0.19;82.66;100840.91;4487010;31;36004;-75
2022/01/29 01:04:42;;;;;;;4.97;1.25;;;;;;;-0.17;83.04;100838.84;4470303;31;35482;-75
2022/01/29 01:07:27;;;;;;;5.15;1.40;;;;;;;-0.38;84.41;100829.13;4495293;31;34141;-75
2022/01/29 01:10:14;;;;;;;2.15;1.00;;;;;;;-0.37;84.72;100846.94;4467438;31;34579;-77
2022/01/29 01:13:00;;;;;;;6.00;1.25;;;;;;;-0.08;83.64;100842.12;4479602;31;35922;-74
2022/01/29 01:15:47;;;;;;;5.37;1.33;;;;;;;-0.29;83.71;100846.69;4482068;31;34861;-75
2022/01/29 01:18:33;;;;;;;3.83;1.15;;;;;;;-0.30;84.29;100849.63;4484528;31;34959;-73
2022/01/29 01:21:19;;;;;;;3.12;0.80;;;;;;;-0.42;84.72;100872.84;4474814;31;35493;-77
2022/01/29 01:24:06;;;;;;;3.37;1.48;;;;;;;-0.21;84.58;100855.62;4478958;31;34982;-75
2022/01/29 01:26:52;;;;;;;4.22;1.00;;;;;;;-0.37;84.97;100862.25;4479372;31;34520;-75
2022/01/29 01:29:38;;;;;;;3.70;1.60;;;;;;;-0.17;83.82;100871.16;4479052;31;33102;-74
2022/01/29 01:32:25;;;;;;;3.37;1.50;;;;;;;-0.53;85.44;100871.59;4481593;31;34605;-74
2022/01/29 01:35:22;;;;;;;3.45;1.08;;;;;;;-0.50;86.00;100872.00;4474565;31;35836;-74
2022/01/29 01:38:23;;;;;;;4.28;0.90;;;;;;;-0.62;86.77;100870.97;4481150;31;34600;-74
2022/01/29 01:41:13;;;;;;;5.15;1.35;;;;;;;-0.38;85.82;100864.13;4476409;31;34116;-74
2022/01/29 01:44:00;;;;;;;5.03;1.30;;;;;;;-0.15;85.53;100852.91;4480476;31;35562;-74
2022/01/29 01:46:47;;;;;;;6.62;1.87;;;;;;;-0.67;86.40;100870.78;4478238;31;34904;-75
2022/01/29 01:49:34;;;;;;;3.60;1.08;;;;;;;-0.51;85.48;100864.97;4476151;31;35511;-75
2022/01/29 01:52:21;;;;;;;3.12;1.23;;;;;;;-0.54;85.62;100853.78;4479062;31;34137;-76
2022/01/29 01:55:08;;;;;;;3.30;1.17;;;;;;;-0.60;85.39;100851.91;4485529;31;35637;-75
2022/01/29 01:57:54;;;;;;;4.40;1.40;;;;;;;-0.58;84.08;100847.97;4477668;31;34928;-76
2022/01/29 02:00:40;;;;;;;2.12;1.23;;;;;;;-0.61;84.02;100843.03;4489162;31;34242;-75
2022/01/29 02:03:27;;;;;;;6.40;1.45;;;;;;;-0.51;82.92;100839.94;4480274;31;35050;-74
2022/01/29 02:06:13;;;;;;;6.40;1.12;;;;;;;-0.47;81.78;100833.91;4491880;31;34660;-75
2022/01/29 02:09:00;;;;;;;4.47;1.17;;;;;;;-0.42;81.15;100835.97;4480724;31;34909;-77
2022/01/29 02:11:49;;;;;;;1.80;0.80;;;;;;;-0.17;80.33;100836.13;4478161;31;34454;-73
2022/01/29 02:14:37;;;;;;;6.10;1.10;;;;;;;-0.33;78.64;100844.66;4485677;31;35201;-74
2022/01/29 02:17:24;;;;;;;2.83;0.70;;;;;;;-0.31;78.78;100837.22;4476772;31;35382;-76
2022/01/29 02:20:11;;;;;;;3.60;1.40;;;;;;;-0.31;79.43;100850.66;4491517;31;34925;-76
2022/01/29 02:22:57;;;;;;;4.20;1.20;;;;;;;-0.47;79.29;100850.06;4478844;31;34247;-75
2022/01/29 02:25:45;;;;;;;5.97;1.05;;;;;;;-0.46;78.81;100842.78;4466185;31;34739;-75
2022/01/29 02:28:32;;;;;;;3.28;0.93;;;;;;;-0.35;77.92;100861.00;4489508;31;34721;-76
2022/01/29 02:31:18;;;;;;;3.37;0.73;;;;;;;-0.36;77.61;100856.66;4477720;31;36363;-74
2022/01/29 02:34:05;;;;;;;1.80;0.70;;;;;;;-0.15;73.34;100852.06;4488329;31;35361;-75
2022/01/29 02:36:52;;;;;;;2.85;0.95;;;;;;;-0.06;73.49;100846.28;4466230;31;33692;-75
2022/01/29 02:39:38;;;;;;;5.20;1.20;;;;;;;-0.24;75.09;100846.91;4475840;31;34294;-75
2022/01/29 02:42:25;;;;;;;3.25;0.75;;;;;;;-0.09;74.52;100856.63;4478728;31;35578;-75
2022/01/29 02:45:11;;;;;;;3.30;1.10;;;;;;;-0.22;75.28;100853.97;4486572;31;33944;-75
2022/01/29 02:47:57;;;;;;;3.40;1.08;;;;;;;-0.25;74.27;100847.13;4480569;31;35070;-74
2022/01/29 02:50:44;;;;;;;4.03;1.73;;;;;;;-0.38;76.19;100868.69;4486792;31;34598;-74
2022/01/29 02:53:30;;;;;;;3.92;1.10;;;;;;;-0.61;77.51;100875.31;4485843;31;36001;-74
2022/01/29 02:56:17;;;;;;;3.75;1.20;;;;;;;-0.59;77.34;100867.87;4483508;31;34177;-76
2022/01/29 02:59:03;;;;;;;4.78;1.20;;;;;;;-0.64;78.28;100864.16;4494166;31;34100;-73
2022/01/29 03:01:49;;;;;;;5.80;1.45;;;;;;;-0.67;77.16;100865.38;4477722;31;35590;-76
2022/01/29 03:04:36;;;;;;;3.72;2.22;;;;;;;-0.63;76.16;100866.63;4483899;31;34437;-74
2022/01/29 03:07:23;;;;;;;4.72;1.17;;;;;;;-0.63;75.51;100861.22;4487319;31;34803;-75
2022/01/29 03:10:09;;;;;;;4.28;1.25;;;;;;;-0.40;73.78;100862.66;4489491;31;34521;-76
2022/01/29 03:12:55;;;;;;;2.75;1.08;;;;;;;-0.37;72.65;100859.56;4467924;31;34642;-76
2022/01/29 03:15:42;;;;;;;3.47;0.98;;;;;;;-0.43;72.99;100860.41;4479420;31;34953;-76
2022/01/29 03:18:28;;;;;;;4.20;1.10;;;;;;;-0.44;73.39;100873.03;4475476;31;34386;-77
2022/01/29 03:21:15;;;;;;;2.30;0.90;;;;;;;-0.60;74.60;100884.22;4461989;31;34151;-75
2022/01/29 03:24:01;;;;;;;2.72;0.88;;;;;;;-0.42;72.95;100891.69;4487596;31;34149;-77
2022/01/29 03:26:47;;;;;;;4.50;1.00;;;;;;;-0.21;71.21;100885.25;4468238;31;34950;-75
2022/01/29 03:29:34;;;;;;;3.47;0.90;;;;;;;-0.18;70.50;100885.66;4472548;31;34255;-76
2022/01/29 03:32:20;;;;;;;1.73;0.80;;;;;;;-0.30;69.69;100901.63;4476382;31;34081;-75
2022/01/29 03:35:08;;;;;;;4.07;1.00;;;;;;;-0.06;67.68;100893.91;4488652;31;35301;-76
2022/01/29 03:37:54;;;;;;;4.07;1.00;;;;;;;-0.13;67.68;100902.00;4477303;31;34862;-78
2022/01/29 03:40:41;;;;;;;6.25;0.90;;;;;;;-0.01;66.88;100892.25;4473825;31;35182;-76
2022/01/29 03:43:31;;;;;;;3.80;0.95;;;;;;;0.11;66.89;100891.59;4487801;31;34115;-74
2022/01/29 03:46:18;;;;;;;2.53;0.73;;;;;;;-0.15;67.31;100890.59;4474927;31;35449;-77
2022/01/29 03:49:05;;;;;;;4.70;1.80;;;;;;;0.05;66.59;100895.13;4465204;31;34960;-77
2022/01/29 03:51:51;;;;;;;3.90;0.82;;;;;;;0.02;66.07;100885.59;4486226;31;35187;-75
2022/01/29 03:54:37;;;;;;;3.47;0.93;;;;;;;-0.11;66.20;100870.31;4473688;31;34083;-75
2022/01/29 03:57:24;;;;;;;3.60;1.00;;;;;;;0.15;64.25;100882.88;4485864;31;34692;-74
2022/01/29 04:00:11;;;;;;;4.87;0.60;;;;;;;0.05;64.56;100889.75;4476234;32;34906;-76
2022/01/29 04:02:59;;;;;;;2.70;0.90;;;;;;;0.18;63.83;100884.34;4473377;31;35482;-77
2022/01/29 04:05:45;;;;;;;2.35;0.75;;;;;;;0.37;63.37;100893.38;4463133;31;34235;-75
2022/01/29 04:08:39;;;;;;;3.55;1.10;;;;;;;0.16;63.94;100891.78;4486636;31;35578;-78
2022/01/29 04:11:26;;;;;;;3.90;0.88;;;;;;;0.12;64.31;100906.75;4489553;31;34938;-75
2022/01/29 04:14:20;;;;;;;3.50;0.90;;;;;;;-0.05;65.54;100901.78;4488139;31;35783;-76
2022/01/29 04:17:07;;;;;;;3.78;0.90;;;;;;;0.09;65.19;100901.78;4485926;31;33750;-77
2022/01/29 04:19:53;;;;;;;2.95;0.90;;;;;;;0.06;64.86;100894.94;4483580;31;35519;-75
2022/01/29 04:22:39;;;;;;;4.18;0.80;;;;;;;0.18;64.39;100889.72;4485071;31;35761;-76
2022/01/29 04:25:26;;;;;;;2.15;0.80;;;;;;;0.14;64.78;100883.94;4484567;31;35024;-76
2022/01/29 04:28:14;;;;;;;3.95;1.20;;;;;;;0.10;65.12;100887.25;4477643;31;35041;-76
2022/01/29 04:31:06;;;;;;;3.28;0.77;;;;;;;0.32;63.92;100874.34;4481434;31;34633;-77
2022/01/29 04:33:52;;;;;;;4.47;0.88;;;;;;;0.10;64.89;100877.28;4475569;31;35976;-75
2022/01/29 04:36:38;;;;;;;4.05;0.82;;;;;;;0.08;64.89;100873.16;4464983;31;34740;-75
2022/01/29 04:39:24;;;;;;;5.82;1.50;;;;;;;0.13;65.02;100866.09;4474244;31;35420;-75
2022/01/29 04:42:11;;;;;;;3.42;1.00;;;;;;;-0.06;65.86;100867.81;4494084;31;33540;-77
2022/01/29 04:44:57;;;;;;;3.80;0.88;;;;;;;-0.07;66.13;100870.72;4469830;31;34546;-76
2022/01/29 04:47:43;;;;;;;5.28;1.17;;;;;;;-0.05;66.18;100868.66;4489018;31;34745;-76
2022/01/29 04:50:30;;;;;;;5.30;1.00;;;;;;;-0.18;66.91;100861.41;4482663;31;35041;-76
2022/01/29 04:53:16;;;;;;;3.00;0.90;;;;;;;-0.12;66.75;100863.25;4496187;31;34504;-74
2022/01/29 04:56:03;;;;;;;4.20;1.20;;;;;;;-0.16;67.19;100862.03;4475674;31;35969;-74
2022/01/29 04:58:49;;;;;;;3.28;0.70;;;;;;;-0.18;67.13;100864.09;4463340;31;34847;-74
2022/01/29 05:01:36;;;;;;;5.62;1.05;;;;;;;-0.02;66.43;100860.13;4480250;31;34674;-76
2022/01/29 05:04:22;;;;;;;2.80;1.00;;;;;;;-0.11;66.99;100864.94;4488897;31;34628;-76
2022/01/29 05:07:08;;;;;;;1.98;0.88;;;;;;;-0.06;66.84;100875.91;4477414;31;34566;-74
2022/01/29 05:09:55;;;;;;;3.50;0.88;;;;;;;0.05;66.04;100862.81;4475886;31;35505;-78
2022/01/29 05:12:59;;;;;;;5.85;1.10;;;;;;;0.04;66.44;100871.94;4479629;31;32788;-77
2022/01/29 05:27:55;;;;;;;3.83;1.00;;;;;;;0.07;67.84;100893.06;4479017;31;34691;-78
2022/01/29 05:30:41;;;;;;;7.78;1.30;;;;;;;0.51;66.52;100894.16;4487436;31;34552;-78
2022/01/29 05:33:27;;;;;;;6.62;1.15;;;;;;;0.20;68.23;100884.97;4480584;31;36265;-75
2022/01/29 05:36:13;;;;;;;6.82;1.17;;;;;;;0.14;68.76;100899.25;4487497;31;35016;-76
2022/01/29 05:39:00;;;;;;;4.12;1.00;;;;;;;0.11;68.54;100887.03;4488361;31;35622;-76
2022/01/29 05:41:46;;;;;;;3.28;1.00;;;;;;;0.07;68.61;100888.50;4476386;31;35591;-76
2022/01/29 05:44:32;;;;;;;7.53;1.98;;;;;;;0.22;67.54;100897.16;4493184;31;35526;-77
2022/01/29 05:47:18;;;;;;;3.62;1.17;;;;;;;0.21;67.00;100894.69;4485155;31;35073;-76
2022/01/29 05:50:05;;;;;;;5.45;1.10;;;;;;;0.34;66.86;100899.19;4479325;31;34567;-79
2022/01/29 05:52:52;;;;;;;4.15;1.35;;;;;;;0.43;67.20;100898.75;4479207;31;35990;-77
2022/01/29 05:55:38;;;;;;;4.78;1.23;;;;;;;0.15;68.15;100901.75;4483193;31;35698;-76
2022/01/29 05:58:25;;;;;;;4.22;0.90;;;;;;;0.20;68.05;100906.53;4479164;31;34298;-77
2022/01/29 06:01:11;;;;;;;5.55;1.48;;;;;;;0.72;66.24;100920.03;4460348;31;34622;-75
2022/01/29 06:04:03;;;;;;;6.68;1.35;;;;;;;0.29;67.40;100924.13;4482439;31;35051;-78
2022/01/29 06:06:49;;;;;;;3.05;1.00;;;;;;;0.59;66.77;100918.19;4489345;31;35450;-78
2022/01/29 06:09:35;;;;;;;4.50;1.50;;;;;;;0.76;65.78;100921.22;4465651;31;35054;-78
2022/01/29 06:12:21;;;;;;;6.15;1.17;;;;;;;0.82;65.43;100934.69;4481693;31;34510;-78
2022/01/29 06:15:08;;;;;;;4.22;0.93;;;;;;;0.61;66.09;100932.31;4494722;31;35016;-78
2022/01/29 06:17:55;;;;;;;4.18;1.40;;;;;;;0.35;66.86;100936.75;4481730;31;35435;-78
2022/01/29 06:20:43;;;;;;;4.78;1.70;;;;;;;0.82;65.29;100931.97;4482691;31;33053;-78
2022/01/29 06:23:32;;;;;;;6.07;1.98;;;;;;;0.40;66.89;100942.34;4481157;31;34551;-78
2022/01/29 06:26:18;;;;;;;5.80;1.75;;;;;;;0.67;65.86;100931.44;4481353;31;34966;-78
2022/01/29 06:29:05;;;;;;;7.78;2.03;;;;;;;1.41;63.20;100942.66;4478380;31;34635;-78
2022/01/29 06:31:51;;;;;;;11.70;3.72;;;;;;;1.89;61.33;100933.97;4487332;31;33965;-78
2022/01/29 06:34:37;;;;;;;14.35;4.25;;;;;;;1.86;61.15;100934.41;4493294;31;34260;-78
2022/01/29 06:37:24;;;;;;;15.63;3.87;;;;;;;1.34;62.96;100921.94;4491166;31;36056;-78
2022/01/29 06:40:11;;;;;;;16.37;5.55;;;;;;;1.49;62.62;100939.69;4477618;31;34549;-78
2022/01/29 06:42:58;;;;;;;9.45;3.37;;;;;;;2.03;61.11;100947.12;4481319;31;34145;-78
2022/01/29 06:45:45;;;;;;;13.55;4.10;;;;;;;2.23;60.58;100935.28;4475955;31;35480;-78
2022/01/29 06:48:32;;;;;;;15.13;4.35;;;;;;;1.84;62.00;100931.09;4479775;31;34084;-78
2022/01/29 06:51:19;;;;;;;9.98;3.62;;;;;;;1.12;65.78;100934.12;4479408;31;34830;-78
2022/01/29 06:54:05;;;;;;;10.70;2.92;;;;;;;0.75;69.38;100933.06;4485047;31;34869;-78
2022/01/29 06:56:51;;;;;;;7.05;2.60;;;;;;;1.50;66.01;100925.97;4495046;31;34718;-78
2022/01/29 06:59:38;;;;;;;8.93;2.35;;;;;;;1.11;68.64;100943.25;4482897;31;35024;-78
2022/01/29 07:02:28;;;;;;;7.60;2.35;;;;;;;1.01;68.15;100945.59;4487556;31;33383;-78
2022/01/29 07:05:14;;;;;;;6.57;2.20;;;;;;;0.44;71.63;100940.84;4494388;31;34168;-78
2022/01/29 07:08:01;;;;;;;6.20;2.10;;;;;;;0.37;72.37;100944.59;4483313;31;35223;-77
2022/01/29 07:10:49;;;;;;;5.87;2.00;;;;;;;0.28;71.55;100960.19;4477907;31;34546;-78
2022/01/29 07:13:36;;;;;;;6.68;1.80;;;;;;;0.31;71.83;100954.38;4496163;31;33432;-77
2022/01/29 07:16:22;;;;;;;7.55;1.62;;;;;;;0.38;70.42;100944.41;4452042;31;35012;-77
2022/01/29 07:19:09;;;;;;;9.00;2.00;;;;;;;0.50;69.78;100939.19;4480736;31;34689;-76
2022/01/29 07:21:55;;;;;;;10.98;2.67;;;;;;;0.22;70.52;100950.25;4477969;31;35997;-77
2022/01/29 07:24:42;;;;;;;5.22;1.98;;;;;;;0.07;72.16;100957.75;4475741;31;35511;-76
2022/01/29 07:27:29;;;;;;;8.35;2.40;;;;;;;0.43;71.69;100958.09;4481256;31;34101;-77
2022/01/29 07:30:14;;;;;;;7.85;2.25;;;;;;;0.21;72.51;100971.00;4472764;31;35599;-76
2022/01/29 07:33:01;;;;;;;7.00;2.08;;;;;;;-0.02;74.44;100966.03;4482229;31;35573;-77
2022/01/29 07:35:47;;;;;;;11.25;3.50;;;;;;;0.05;74.46;100966.03;4485507;31;34284;-77
2022/01/29 07:38:33;;;;;;;10.60;2.85;;;;;;;0.13;73.86;100967.69;4468003;31;34204;-77
2022/01/29 07:41:20;;;;;;;11.10;3.33;;;;;;;-0.10;75.66;100968.94;4494388;31;34575;-78
2022/01/29 07:44:06;;;;;;;12.45;3.65;;;;;;;0.13;75.39;100973.06;4489301;31;35915;-77
2022/01/29 07:46:53;;;;;;;10.60;2.78;;;;;;;0.21;74.86;100962.06;4477128;31;34792;-76
2022/01/29 07:49:39;;;;;;;9.82;2.37;;;;;;;0.12;75.03;100966.03;4478197;31;34356;-77
2022/01/29 07:52:27;;;;;;;8.18;2.60;;;;;;;0.43;73.64;100960.78;4490869;31;36159;-77
2022/01/29 07:55:14;;;;;;;7.82;2.47;;;;;;;0.62;73.07;100963.63;4480467;31;33954;-77
2022/01/29 07:58:01;;;;;;;11.63;2.70;;;;;;;0.88;72.41;100960.84;4478417;31;34206;-78
2022/01/29 08:00:54;;;;;;;11.23;2.83;;;;;;;1.52;70.00;100966.28;4478890;31;33912;-77
2022/01/29 08:03:41;;;;;;;16.02;3.08;;;;;;;0.83;72.35;100970.62;4484828;31;34591;-80
2022/01/29 08:06:29;;;;;;;11.27;3.30;;;;;;;0.89;71.75;100978.66;4483745;31;35043;-79
2022/01/29 08:09:16;;;;;;;13.23;2.95;;;;;;;0.88;71.38;100970.78;4488274;31;34387;-78
2022/01/29 08:12:02;;;;;;;14.50;4.50;;;;;;;0.98;71.49;100976.56;4481330;31;36489;-79
2022/01/29 08:14:49;;;;;;;13.10;5.37;;;;;;;1.53;70.00;100973.31;4489580;31;37346;-79
2022/01/29 08:17:35;;;;;;;10.68;2.70;;;;;;;1.35;69.82;100977.59;4485063;31;35011;-78
2022/01/29 08:20:22;;;;;;;10.65;2.67;;;;;;;1.37;69.79;100976.53;4485599;31;34315;-80
2022/01/29 08:23:09;;;;;;;10.05;2.33;;;;;;;1.53;68.47;100967.91;4484112;31;34981;-79
2022/01/29 08:25:56;;;;;;;9.95;2.25;;;;;;;1.22;69.28;100969.56;4476748;31;34218;-77
2022/01/29 08:28:42;;;;;;;10.00;2.58;;;;;;;0.99;69.77;100967.41;4478837;31;34922;-78
2022/01/29 08:31:28;;;;;;;12.35;3.55;;;;;;;1.00;69.76;100979.87;4483116;31;34619;-79
2022/01/29 08:34:15;;;;;;;14.13;2.72;;;;;;;1.11;68.98;100968.41;4486840;31;34237;-79
2022/01/29 08:37:03;;;;;;;10.48;2.25;;;;;;;0.94;69.91;100974.50;4472473;31;174449;-79
2022/01/29 08:39:49;;;;;;;11.85;3.00;;;;;;;1.07;69.04;100982.53;4495251;31;34693;-78
2022/01/29 08:42:36;;;;;;;8.45;2.10;;;;;;;1.07;67.90;100972.56;4487497;31;35278;-79
2022/01/29 08:45:22;;;;;;;7.82;2.30;;;;;;;1.14;68.55;100972.53;4485103;31;34314;-80
2022/01/29 08:48:09;;;;;;;7.65;2.30;;;;;;;1.41;67.13;100977.78;4483750;31;35617;-79
2022/01/29 08:50:55;;;;;;;10.93;3.22;;;;;;;1.86;64.71;100978.47;4480817;31;36358;-80
2022/01/29 08:53:41;;;;;;;5.28;2.10;;;;;;;1.93;64.38;100979.22;4479333;31;34561;-80
2022/01/29 08:56:28;;;;;;;41.53;11.65;;;;;;;2.18;63.83;100987.34;4477483;31;35147;-78
2022/01/29 08:59:14;;;;;;;9.48;2.90;;;;;;;1.77;62.60;100985.22;4479124;31;35426;-81
2022/01/29 09:02:00;;;;;;;6.43;2.05;;;;;;;1.57;63.52;100986.19;4478671;31;34631;-82
2022/01/29 09:04:47;;;;;;;8.05;2.03;;;;;;;1.93;62.94;100986.53;4479004;31;34201;-81
2022/01/29 09:07:34;;;;;;;9.45;1.50;;;;;;;2.19;61.52;100989.00;4478112;31;35084;-80
2022/01/29 09:10:20;;;;;;;7.22;2.10;;;;;;;2.23;58.87;100986.69;4476484;31;34611;-81
2022/01/29 09:13:07;;;;;;;11.90;1.73;;;;;;;2.56;57.84;100990.91;4478614;31;35950;-81
2022/01/29 09:15:55;;;;;;;8.27;2.00;;;;;;;2.25;57.30;100987.28;4484065;31;35472;-80
2022/01/29 09:18:41;;;;;;;12.45;2.22;;;;;;;2.12;56.71;100985.53;4472493;31;34473;-81
2022/01/29 09:21:28;;;;;;;5.43;1.80;;;;;;;2.57;55.47;100993.41;4475900;31;35222;-82
2022/01/29 09:24:15;;;;;;;4.87;1.15;;;;;;;2.62;54.79;100987.31;4483324;31;36359;-77
2022/01/29 09:27:01;;;;;;;5.68;1.30;;;;;;;2.69;52.81;100985.34;4479319;31;34674;-79
2022/01/29 09:29:48;;;;;;;4.68;1.10;;;;;;;2.22;53.56;100980.44;4478217;31;34082;-81
2022/01/29 09:32:34;;;;;;;4.85;1.20;;;;;;;2.67;53.29;100980.16;4492204;31;35581;-81
2022/01/29 09:35:22;;;;;;;4.55;1.20;;;;;;;2.79;53.13;100972.13;4462318;31;34489;-81
2022/01/29 09:38:09;;;;;;;5.80;1.30;;;;;;;2.83;52.94;100969.78;4482438;31;35063;-81
2022/01/29 09:40:56;;;;;;;3.62;1.52;;;;;;;3.27;52.06;100971.31;4480962;31;35137;-80
2022/01/29 09:43:45;;;;;;;5.30;1.55;;;;;;;3.42;52.69;100970.88;4475233;31;35207;-80
2022/01/29 09:46:31;;;;;;;6.78;1.60;;;;;;;3.19;53.17;100965.34;4478559;31;34560;-79
2022/01/29 09:49:18;;;;;;;4.85;1.80;;;;;;;3.18;53.69;100975.38;4485023;31;34422;-82
2022/01/29 09:52:04;;;;;;;5.15;1.65;;;;;;;3.54;53.45;100952.75;4483633;31;33797;-80
2022/01/29 09:54:51;;;;;;;11.90;3.20;;;;;;;3.38;54.92;100937.97;4483974;31;35301;-79
2022/01/29 09:57:37;;;;;;;8.80;3.28;;;;;;;3.68;54.78;100947.12;4484027;31;34567;-81
2022/01/29 10:00:23;;;;;;;6.57;1.90;;;;;;;3.80;54.58;100934.41;4488123;31;34347;-81
2022/01/29 10:03:10;;;;;;;8.70;2.28;;;;;;;3.53;56.49;100920.44;4468130;31;34060;-79
2022/01/29 10:05:57;;;;;;;10.48;2.45;;;;;;;3.98;55.64;100930.75;4487406;31;33683;-80
2022/01/29 10:08:44;;;;;;;9.77;2.10;;;;;;;4.02;55.50;100924.63;4493846;31;34921;-80
2022/01/29 10:11:31;;;;;;;6.62;2.45;;;;;;;3.19;57.28;100924.72;4477428;31;34327;-81
2022/01/29 10:14:18;;;;;;;9.55;2.40;;;;;;;3.51;57.22;100920.69;4492659;31;35183;-80
2022/01/29 10:17:04;;;;;;;11.05;3.33;;;;;;;3.68;57.46;100909.19;4488303;31;34533;-81
2022/01/29 10:20:06;;;;;;;9.15;3.15;;;;;;;3.56;57.63;100914.59;4477024;31;35650;-78
2022/01/29 10:22:57;;;;;;;13.20;2.78;;;;;;;2.85;60.45;100921.66;4480838;31;34260;-78
2022/01/29 10:25:50;;;;;;;8.77;2.85;;;;;;;2.68;61.10;100918.75;4485887;31;34152;-78
2022/01/29 10:28:38;;;;;;;11.93;3.65;;;;;;;2.43;61.95;100910.72;4475650;31;35489;-80
2022/01/29 10:31:24;;;;;;;4.68;2.33;;;;;;;2.34;62.86;100909.38;4483747;31;33840;-81
2022/01/29 10:34:31;;;;;;;10.38;2.40;;;;;;;2.48;62.60;100913.59;4475618;31;35646;-82
2022/01/29 10:37:19;;;;;;;8.88;2.35;;;;;;;2.56;62.96;100916.00;4465489;31;33958;-81
2022/01/29 10:40:16;;;;;;;8.43;2.50;;;;;;;2.76;62.16;100909.50;4473623;31;35163;-80
2022/01/29 10:43:04;;;;;;;11.00;2.72;;;;;;;2.51;62.91;100905.03;4482597;31;35922;-81
2022/01/29 10:45:51;;;;;;;11.80;2.67;;;;;;;2.36;63.81;100896.44;4469934;31;35054;-80
2022/01/29 10:48:43;;;;;;;9.32;2.28;;;;;;;2.56;63.81;100901.63;4479488;31;33619;-83
2022/01/29 10:51:29;;;;;;;10.98;2.15;;;;;;;2.45;64.20;100895.94;4474956;31;34582;-79
2022/01/29 10:54:20;;;;;;;15.45;2.78;;;;;;;2.83;62.75;100900.22;4477843;31;35658;-82
2022/01/29 10:57:08;;;;;;;8.73;2.60;;;;;;;2.20;65.60;100893.31;4477185;31;34105;-82
2022/01/29 10:59:54;;;;;;;7.00;2.25;;;;;;;2.48;65.19;100889.25;4488294;31;34889;-81
2022/01/29 11:02:42;;;;;;;12.20;3.67;;;;;;;2.25;66.57;100885.34;4476709;31;36687;-81
2022/01/29 11:05:29;;;;;;;14.70;5.00;;;;;;;2.37;66.97;100887.31;4466694;31;34959;-82
2022/01/29 11:08:18;;;;;;;10.48;3.83;;;;;;;2.46;66.47;100880.53;4484464;31;33444;-84
2022/01/29 11:11:05;;;;;;;9.98;3.05;;;;;;;2.56;66.18;100888.94;4489347;31;32335;-81
2022/01/29 11:13:56;;;;;;;13.25;3.15;;;;;;;2.48;66.50;100878.44;4480613;31;35034;-81
2022/01/29 11:16:43;;;;;;;13.90;3.90;;;;;;;2.16;67.82;100875.88;4470946;31;34820;-82
2022/01/29 11:19:31;;;;;;;10.07;3.30;;;;;;;2.78;66.39;100869.50;4479582;31;34643;-80
2022/01/29 11:22:20;;;;;;;10.32;3.58;;;;;;;2.68;66.67;100868.16;4491873;31;32859;-79
2022/01/29 11:25:22;;;;;;;10.07;3.03;;;;;;;2.82;66.45;100863.41;4475926;31;35692;-81
2022/01/29 11:28:18;;;;;;;15.82;4.00;;;;;;;2.70;67.33;100857.09;4476464;31;35889;-80
2022/01/29 11:31:15;;;;;;;16.37;3.90;;;;;;;2.79;67.61;100844.06;4472286;31;34873;-81
2022/01/29 11:34:02;;;;;;;8.85;2.53;;;;;;;3.03;66.80;100847.69;4479585;31;34408;-79
2022/01/29 11:36:48;;;;;;;14.60;3.05;;;;;;;3.42;65.29;100840.00;4481920;31;35592;-81
2022/01/29 11:39:36;;;;;;;47.72;18.20;;;;;;;2.96;67.31;100833.41;4482082;31;35049;-80
2022/01/29 11:42:30;;;;;;;18.83;8.73;;;;;;;2.94;67.08;100833.66;4489560;31;34688;-81
2022/01/29 11:45:50;;;;;;;12.88;2.97;;;;;;;3.19;65.90;100819.09;4475231;31;33966;-82
2022/01/29 11:51:41;;;;;;;14.57;3.97;;;;;;;3.12;66.17;100814.62;4479488;31;34931;-82
2022/01/29 11:54:28;;;;;;;12.20;3.40;;;;;;;3.34;65.32;100812.19;4490760;31;34383;-81
2022/01/29 11:57:14;;;;;;;11.12;3.20;;;;;;;3.72;64.37;100801.91;4479372;31;33870;-80
2022/01/29 12:00:33;;;;;;;13.30;3.37;;;;;;;3.19;66.09;100798.28;4482220;31;34566;-79
2022/01/29 12:03:40;;;;;;;11.90;3.25;;;;;;;3.00;66.93;100794.00;4489105;31;35049;-78
2022/01/29 12:06:30;;;;;;;10.75;3.08;;;;;;;3.06;66.59;100796.59;4488366;31;34335;-79
2022/01/29 12:09:21;;;;;;;12.07;3.33;;;;;;;3.08;66.40;100785.53;4482415;31;33781;-81
2022/01/29 12:12:19;;;;;;;12.63;3.95;;;;;;;2.93;67.25;100781.41;4472829;31;35564;-80
2022/01/29 12:15:09;;;;;;;9.93;3.28;;;;;;;3.24;66.11;100775.87;4471045;31;35585;-81
2022/01/29 12:17:59;;;;;;;10.30;2.90;;;;;;;3.43;65.96;100777.44;4489550;31;34649;-82
2022/01/29 12:20:45;;;;;;;13.75;3.15;;;;;;;3.35;65.96;100775.87;4496096;31;34242;-81
2022/01/29 12:23:50;;;;;;;13.75;2.87;;;;;;;3.79;64.33;100772.81;4479938;31;34603;-81
2022/01/29 12:26:37;;;;;;;16.42;2.85;;;;;;;3.49;65.20;100754.81;4482331;31;36326;-80
2022/01/29 12:29:23;;;;;;;13.88;2.90;;;;;;;3.45;64.89;100758.25;4483163;31;34749;-80
2022/01/29 12:32:10;;;;;;;13.55;3.00;;;;;;;3.82;63.95;100758.78;4469337;31;34060;-80
2022/01/29 12:35:03;;;;;;;13.70;3.90;;;;;;;4.05;63.41;100747.88;4469159;31;34564;-77
2022/01/29 12:37:54;;;;;;;23.42;8.13;;;;;;;3.76;63.27;100738.06;4484183;31;35002;-79
2022/01/29 12:40:50;;;;;;;16.85;4.00;;;;;;;3.45;64.63;100742.81;4484815;31;34249;-80
2022/01/29 12:43:52;;;;;;;13.98;4.87;;;;;;;3.57;64.24;100740.06;4485935;31;34818;-80
2022/01/29 12:46:41;;;;;;;12.18;3.80;;;;;;;3.29;65.32;100730.78;4472548;31;35469;-80
2022/01/29 12:49:38;;;;;;;14.98;3.05;;;;;;;3.63;64.06;100719.34;4498517;31;36079;-81
2022/01/29 12:52:26;;;;;;;13.30;2.75;;;;;;;3.11;65.97;100715.47;4471587;31;35437;-81
2022/01/29 12:55:13;;;;;;;14.57;4.40;;;;;;;3.49;64.84;100707.91;4484005;31;35111;-81
2022/01/29 12:57:59;;;;;;;13.70;4.05;;;;;;;3.66;64.27;100699.88;4480005;31;35546;-81
2022/01/29 13:00:46;;;;;;;15.48;4.72;;;;;;;4.15;62.28;100703.00;4478612;31;34546;-82
2022/01/29 13:03:32;;;;;;;32.05;5.75;;;;;;;4.37;61.52;100701.25;4494084;31;34032;-82
2022/01/29 13:06:20;;;;;;;15.38;5.05;;;;;;;4.15;62.10;100698.41;4479804;31;34111;-82
2022/01/29 13:09:16;;;;;;;10.27;3.33;;;;;;;3.60;64.06;100697.06;4498391;31;35587;-81
2022/01/29 13:12:05;;;;;;;12.95;2.95;;;;;;;3.82;63.38;100694.53;4464107;31;34932;-81
2022/01/29 13:14:52;;;;;;;9.02;2.70;;;;;;;3.99;62.68;100688.34;4478181;31;34808;-82
2022/01/29 13:17:42;;;;;;;14.32;3.00;;;;;;;3.52;64.71;100685.75;4479968;31;34114;-82
2022/01/29 13:20:28;;;;;;;12.75;3.70;;;;;;;3.87;63.58;100693.81;4478322;31;33558;-81